createdAt,value
2022-11-22T00:00:50.628Z,62.98
2022-11-22T00:03:19.909Z,62.33
2022-11-22T00:05:47.899Z,62.89
2022-11-22T00:08:15.736Z,62.74
2022-11-22T00:10:43.796Z,63.44
2022-11-22T00:13:11.636Z,64.82
2022-11-22T00:15:39.448Z,65.01
2022-11-22T00:18:07.452Z,65.41
2022-11-22T00:20:36.683Z,65.33
2022-11-22T00:23:04.930Z,65.03
2022-11-22T00:25:32.751Z,65.58
2022-11-22T00:28:00.628Z,65.18
2022-11-22T00:30:28.493Z,65.37
2022-11-22T00:32:56.363Z,65.03
2022-11-22T00:35:24.363Z,66.09
2022-11-22T00:37:53.673Z,66.10
2022-11-22T00:40:21.505Z,65.92
2022-11-22T00:42:49.395Z,66.54
2022-11-22T00:45:17.250Z,67.07
2022-11-22T00:47:45.094Z,65.90
2022-11-22T00:50:12.971Z,65.67
2022-11-22T00:52:41.052Z,64.67
2022-11-22T00:55:10.729Z,64.73
2022-11-22T00:57:38.597Z,65.92
2022-11-22T01:00:08.202Z,65.98
2022-11-22T01:02:36.096Z,66.14
2022-11-22T01:05:04.261Z,66.17
2022-11-22T01:07:32.211Z,66.12
2022-11-22T01:10:00.227Z,65.30
2022-11-22T01:12:29.454Z,65.34
2022-11-22T01:14:57.372Z,65.90
2022-11-22T01:17:25.262Z,66.19
2022-11-22T01:19:53.076Z,65.60
2022-11-22T01:22:21.088Z,66.71
2022-11-22T01:24:48.956Z,66.09
2022-11-22T01:27:16.897Z,66.47
2022-11-22T01:29:46.199Z,66.29
2022-11-22T01:32:14.081Z,66.25
2022-11-22T01:34:41.991Z,66.52
2022-11-22T01:37:10.526Z,67.86
2022-11-22T01:39:38.332Z,68.75
2022-11-22T01:42:06.293Z,68.82
2022-11-22T01:44:34.809Z,68.94
2022-11-22T01:47:06.662Z,69.69
2022-11-22T01:49:37.173Z,70.83
2022-11-22T01:52:08.208Z,71.19
2022-11-22T01:54:39.666Z,72.25
2022-11-22T01:57:12.196Z,72.78
2022-11-22T01:59:42.902Z,73.81
2022-11-22T02:02:12.481Z,73.53
2022-11-22T02:04:41.120Z,74.22
2022-11-22T02:07:13.841Z,74.67
2022-11-22T02:09:42.162Z,74.41
2022-11-22T02:12:10.364Z,75.00
2022-11-22T02:14:39.665Z,75.26
2022-11-22T02:17:07.731Z,74.82
2022-11-22T02:19:41.632Z,74.93
2022-11-22T02:22:17.356Z,75.68
2022-11-22T02:24:50.762Z,76.18
2022-11-22T02:27:20.085Z,76.12
2022-11-22T02:29:47.940Z,76.11
2022-11-22T02:32:15.813Z,76.08
2022-11-22T02:34:45.333Z,76.58
2022-11-22T02:37:14.523Z,75.82
2022-11-22T02:39:43.146Z,75.17
2022-11-22T02:42:11.144Z,74.39
2022-11-22T02:44:41.298Z,74.47
2022-11-22T02:47:09.182Z,74.62
2022-11-22T02:49:37.355Z,74.31
2022-11-22T02:52:05.487Z,74.18
2022-11-22T02:54:33.369Z,74.37
2022-11-22T02:57:01.128Z,74.12
2022-11-22T02:59:29.339Z,74.28
2022-11-22T03:02:03.171Z,74.04
2022-11-22T03:04:31.641Z,73.23
2022-11-22T03:07:00.947Z,72.55
2022-11-22T03:09:29.356Z,72.21
2022-11-22T03:11:57.659Z,71.66
2022-11-22T03:14:25.610Z,71.44
2022-11-22T03:16:53.510Z,72.12
2022-11-22T03:19:22.718Z,72.79
2022-11-22T03:21:50.795Z,73.37
2022-11-22T03:24:20.153Z,74.13
2022-11-22T03:26:49.196Z,74.50
2022-11-22T03:29:17.313Z,74.40
2022-11-22T03:31:45.187Z,74.03
2022-11-22T03:34:13.942Z,73.47
2022-11-22T03:36:43.158Z,74.02
2022-11-22T03:39:11.143Z,73.09
2022-11-22T03:41:39.020Z,71.98
2022-11-22T03:44:07.209Z,71.35
2022-11-22T03:46:35.355Z,72.17
2022-11-22T03:49:03.236Z,72.81
2022-11-22T03:51:31.199Z,72.69
2022-11-22T03:54:00.438Z,71.60
2022-11-22T03:56:28.286Z,71.51
2022-11-22T03:58:56.171Z,71.30
2022-11-22T04:01:24.098Z,71.51
2022-11-22T04:03:52.580Z,71.09
2022-11-22T04:06:20.499Z,71.29
2022-11-22T04:08:48.363Z,71.10
2022-11-22T04:11:17.588Z,71.12
2022-11-22T04:14:02.565Z,70.78
2022-11-22T04:16:30.572Z,70.28
2022-11-22T04:18:58.461Z,70.42
2022-11-22T04:21:34.292Z,69.81
2022-11-22T04:24:20.597Z,70.05
2022-11-22T04:26:50.060Z,68.88
2022-11-22T04:29:18.062Z,68.15
2022-11-22T04:32:03.197Z,68.56
2022-11-22T04:34:31.248Z,70.14
2022-11-22T04:36:59.233Z,70.08
2022-11-22T04:39:27.426Z,69.80
2022-11-22T04:42:11.534Z,69.74
2022-11-22T04:44:42.028Z,71.23
2022-11-22T04:47:10.202Z,71.07
2022-11-22T04:49:38.342Z,70.34
2022-11-22T04:52:24.211Z,70.50
2022-11-22T04:54:52.071Z,71.26
2022-11-22T04:57:21.302Z,70.99
2022-11-22T04:59:49.268Z,70.89
2022-11-22T05:02:17.237Z,70.80
2022-11-22T05:04:49.256Z,71.01
2022-11-22T05:07:18.743Z,72.07
2022-11-22T05:09:46.690Z,72.95
2022-11-22T05:12:14.608Z,73.34
2022-11-22T05:14:43.934Z,74.02
2022-11-22T05:17:13.533Z,74.67
2022-11-22T05:19:46.245Z,74.30
2022-11-22T05:22:16.983Z,73.94
2022-11-22T05:24:43.817Z,74.15
2022-11-22T05:27:11.630Z,74.20
2022-11-22T05:29:39.550Z,73.86
2022-11-22T05:32:08.818Z,73.20
2022-11-22T05:34:36.710Z,73.49
2022-11-22T05:37:04.515Z,72.88
2022-11-22T05:39:32.577Z,72.88
2022-11-22T05:42:00.523Z,73.12
2022-11-22T05:44:28.371Z,73.55
2022-11-22T05:46:56.252Z,73.57
2022-11-22T05:49:25.480Z,73.66
2022-11-22T05:51:53.382Z,74.37
2022-11-22T05:54:21.164Z,74.04
2022-11-22T05:56:49.038Z,74.48
2022-11-22T05:59:16.985Z,74.61
2022-11-22T06:01:44.868Z,74.43
2022-11-22T06:04:12.892Z,74.15
2022-11-22T06:06:42.162Z,74.00
2022-11-22T06:09:10.100Z,74.48
2022-11-22T06:11:38.307Z,74.69
2022-11-22T06:14:10.016Z,74.48
2022-11-22T06:16:37.854Z,74.43
2022-11-22T06:19:05.715Z,74.05
2022-11-22T06:21:33.600Z,74.23
2022-11-22T06:24:03.083Z,74.34
2022-11-22T06:26:36.122Z,73.60
2022-11-22T06:29:07.512Z,73.35
2022-11-22T06:31:35.361Z,72.97
2022-11-22T06:34:03.202Z,73.00
2022-11-22T06:36:33.175Z,73.57
2022-11-22T06:39:02.053Z,73.90
2022-11-22T06:41:34.182Z,73.93
2022-11-22T06:44:06.116Z,73.29
2022-11-22T06:46:34.368Z,73.04
2022-11-22T06:49:02.422Z,73.61
2022-11-22T06:51:31.956Z,73.67
2022-11-22T06:54:00.492Z,72.92
2022-11-22T06:56:29.508Z,72.41
2022-11-22T06:58:59.011Z,71.66
2022-11-22T07:01:29.052Z,71.35
2022-11-22T07:03:59.154Z,72.42
2022-11-22T07:06:28.975Z,72.59
2022-11-22T07:08:57.040Z,72.52
2022-11-22T07:11:26.096Z,72.49
2022-11-22T07:13:55.077Z,72.37
2022-11-22T07:16:24.310Z,72.56
2022-11-22T07:18:52.116Z,72.89
2022-11-22T07:21:22.067Z,72.88
2022-11-22T07:23:52.220Z,72.56
2022-11-22T07:26:21.335Z,72.49
2022-11-22T07:28:49.805Z,72.37
2022-11-22T07:31:18.460Z,72.13
2022-11-22T07:33:47.781Z,71.66
2022-11-22T07:36:17.562Z,71.90
2022-11-22T07:38:45.576Z,71.64
2022-11-22T07:41:13.843Z,71.75
2022-11-22T07:43:42.139Z,71.39
2022-11-22T07:46:19.740Z,70.31
2022-11-22T07:48:50.467Z,70.08
2022-11-22T07:51:18.537Z,69.71
2022-11-22T07:53:46.709Z,69.61
2022-11-22T07:56:14.825Z,69.36
2022-11-22T07:58:43.520Z,69.17
2022-11-22T08:01:12.766Z,69.22
2022-11-22T08:03:40.919Z,69.14
2022-11-22T08:06:11.730Z,68.61
2022-11-22T08:08:39.688Z,67.83
2022-11-22T08:11:08.339Z,68.32
2022-11-22T08:13:36.663Z,68.61
2022-11-22T08:16:06.165Z,68.36
2022-11-22T08:18:35.923Z,68.63
2022-11-22T08:21:08.455Z,68.96
2022-11-22T08:23:38.227Z,69.33
2022-11-22T08:26:06.812Z,69.16
2022-11-22T08:28:34.840Z,68.44
2022-11-22T08:31:04.289Z,67.61
2022-11-22T08:33:32.388Z,67.82
2022-11-22T08:36:00.295Z,67.88
2022-11-22T08:38:28.258Z,67.67
2022-11-22T08:40:57.714Z,67.54
2022-11-22T08:43:25.726Z,67.76
2022-11-22T08:45:56.050Z,67.42
2022-11-22T08:48:24.063Z,67.25
2022-11-22T08:50:52.749Z,66.77
2022-11-22T08:53:20.757Z,66.35
2022-11-22T08:55:48.614Z,65.68
2022-11-22T08:58:17.871Z,64.89
2022-11-22T09:00:46.021Z,64.50
2022-11-22T09:03:13.922Z,64.12
2022-11-22T09:08:32.726Z,63.22
2022-11-22T09:11:04.971Z,62.71
2022-11-22T09:13:34.405Z,62.45
2022-11-22T09:16:03.434Z,62.16
2022-11-22T09:18:31.306Z,62.30
2022-11-22T09:21:00.174Z,62.26
2022-11-22T09:23:28.218Z,61.82
2022-11-22T09:25:59.819Z,61.53
2022-11-22T09:28:28.419Z,61.12
2022-11-22T09:31:01.913Z,60.72
2022-11-22T09:33:29.820Z,60.35
2022-11-22T09:36:02.136Z,59.89
2022-11-22T09:38:30.208Z,59.68
2022-11-22T09:40:58.871Z,59.04
2022-11-22T09:43:34.660Z,58.16
2022-11-22T09:46:16.032Z,57.83
2022-11-22T09:48:54.154Z,58.02
2022-11-22T09:51:24.634Z,57.97
2022-11-22T09:53:54.620Z,57.65
2022-11-22T09:56:25.495Z,57.30
2022-11-22T09:58:56.146Z,56.41
2022-11-22T10:01:28.899Z,56.15
2022-11-22T10:04:00.102Z,55.99
2022-11-22T10:06:31.109Z,55.91
2022-11-22T10:09:07.801Z,55.39
2022-11-22T10:11:39.543Z,55.98
2022-11-22T10:14:17.585Z,55.73
2022-11-22T10:16:49.632Z,55.92
2022-11-22T10:19:20.655Z,54.79
2022-11-22T10:21:48.717Z,54.35
2022-11-22T10:24:17.681Z,53.79
2022-11-22T10:26:46.875Z,52.52
2022-11-22T10:29:24.280Z,52.07
2022-11-22T10:31:58.140Z,52.13
2022-11-22T10:34:31.985Z,50.99
2022-11-22T10:37:06.591Z,50.40
2022-11-22T10:39:48.977Z,48.90
2022-11-22T10:42:27.153Z,48.47
2022-11-22T10:45:01.866Z,46.98
2022-11-22T10:47:46.225Z,48.11
2022-11-22T10:50:18.399Z,50.55
2022-11-22T10:52:54.035Z,52.56
2022-11-22T10:55:33.186Z,53.63
2022-11-22T10:58:07.815Z,54.74
2022-11-22T11:00:40.228Z,54.07
2022-11-22T11:03:21.814Z,53.82
2022-11-22T11:09:23.418Z,54.08
2022-11-22T11:11:31.763Z,54.38
2022-11-22T11:14:02.179Z,54.69
2022-11-22T11:16:32.265Z,54.03
2022-11-22T11:19:06.434Z,53.85
2022-11-22T11:21:34.237Z,52.32
2022-11-22T11:24:02.074Z,52.22
2022-11-22T11:26:32.576Z,51.46
2022-11-22T11:29:37.701Z,50.51
2022-11-22T11:32:08.732Z,46.54
2022-11-22T11:34:38.434Z,47.04
2022-11-22T11:37:07.198Z,39.20
2022-11-22T11:39:39.391Z,40.05
2022-11-22T11:42:23.551Z,42.97
2022-11-22T11:44:51.476Z,44.97
2022-11-22T11:47:21.186Z,46.06
2022-11-22T11:49:53.353Z,46.92
2022-11-22T11:52:23.457Z,49.38
2022-11-22T11:54:54.913Z,50.77
2022-11-22T11:57:27.154Z,51.15
2022-11-22T11:59:55.561Z,51.17
2022-11-22T12:02:24.984Z,51.05
2022-11-22T12:04:55.539Z,50.94
2022-11-22T12:07:25.035Z,49.64
2022-11-22T12:09:54.548Z,50.48
2022-11-22T12:12:33.084Z,47.99
2022-11-22T12:15:11.580Z,48.18
2022-11-22T12:17:48.095Z,47.77
2022-11-22T12:20:21.706Z,48.22
2022-11-22T12:22:59.253Z,42.50
2022-11-22T12:25:33.012Z,43.39
2022-11-22T12:28:09.174Z,43.07
2022-11-22T12:30:38.352Z,44.76
2022-11-22T12:33:07.077Z,45.96
2022-11-22T12:35:42.884Z,45.53
2022-11-22T12:38:13.758Z,44.16
2022-11-22T12:40:43.767Z,44.80
2022-11-22T12:43:17.451Z,45.08
2022-11-22T12:45:48.732Z,45.31
2022-11-22T12:48:19.870Z,45.59
2022-11-22T12:50:50.818Z,47.05
2022-11-22T12:53:22.638Z,46.64
2022-11-22T12:55:53.803Z,47.90
2022-11-22T12:58:31.808Z,48.36
2022-11-22T13:01:07.141Z,47.64
2022-11-22T13:03:39.380Z,47.20
2022-11-22T13:06:10.272Z,46.93
2022-11-22T13:08:42.337Z,40.19
2022-11-22T13:11:15.427Z,39.26
2022-11-22T13:13:45.952Z,40.83
2022-11-22T13:16:14.790Z,39.02
2022-11-22T13:18:47.108Z,40.45
2022-11-22T13:21:22.299Z,43.93
2022-11-22T13:24:31.697Z,47.19
2022-11-22T13:27:09.199Z,39.96
2022-11-22T13:29:37.874Z,33.07
2022-11-22T13:32:09.104Z,35.02
2022-11-22T13:34:39.219Z,39.85
2022-11-22T13:37:12.164Z,44.97
2022-11-22T13:39:44.227Z,46.66
2022-11-22T13:42:15.497Z,48.55
2022-11-22T13:45:08.848Z,50.25
2022-11-22T13:47:39.465Z,50.66
2022-11-22T13:50:56.389Z,51.64
2022-11-22T13:53:28.919Z,51.65
2022-11-22T13:55:58.413Z,51.89
2022-11-22T13:58:51.928Z,50.29
2022-11-22T14:01:56.742Z,50.37
2022-11-22T14:04:34.988Z,50.56
2022-11-22T14:07:04.560Z,50.49
2022-11-22T14:09:40.040Z,52.10
2022-11-22T14:12:33.322Z,52.17
2022-11-22T14:15:20.309Z,51.45
2022-11-22T14:17:54.307Z,48.03
2022-11-22T14:20:33.912Z,39.02
2022-11-22T14:23:05.717Z,42.95
2022-11-22T14:25:48.204Z,46.38
2022-11-22T14:28:29.525Z,49.43
2022-11-22T14:30:58.550Z,51.55
2022-11-22T14:33:28.538Z,52.46
2022-11-22T14:36:14.935Z,52.38
2022-11-22T14:38:43.219Z,52.39
2022-11-22T14:41:44.504Z,52.80
2022-11-22T14:44:17.639Z,54.02
2022-11-22T14:46:53.690Z,54.58
2022-11-22T14:49:29.828Z,54.80
2022-11-22T14:51:58.779Z,54.89
2022-11-22T14:54:29.643Z,54.90
2022-11-22T14:57:04.455Z,55.48
2022-11-22T14:59:53.279Z,53.10
2022-11-22T15:02:58.486Z,53.40
2022-11-22T15:09:16.122Z,54.32
2022-11-22T15:09:16.795Z,55.51
2022-11-22T15:11:38.246Z,56.15
2022-11-22T15:14:24.945Z,56.72
2022-11-22T15:59:42.162Z,60.20
2022-11-22T16:02:15.946Z,60.53
2022-11-22T16:06:10.357Z,60.09
2022-11-22T16:07:42.331Z,60.76
2022-11-22T16:10:19.168Z,61.09
2022-11-22T16:12:47.114Z,61.35
2022-11-22T16:15:24.376Z,60.98
2022-11-22T16:17:59.232Z,61.96
2022-11-22T16:20:35.848Z,62.26
2022-11-22T16:23:17.115Z,62.57
2022-11-22T16:25:46.534Z,62.02
2022-11-22T16:28:29.588Z,62.34
2022-11-22T16:30:58.409Z,63.30
2022-11-22T16:33:27.018Z,63.64
2022-11-22T16:35:57.744Z,64.32
2022-11-22T16:38:26.141Z,64.74
2022-11-22T16:40:55.115Z,65.17
2022-11-22T16:43:24.323Z,65.36
2022-11-22T16:45:52.385Z,65.90
2022-11-22T16:48:31.820Z,66.24
2022-11-22T16:51:04.406Z,65.76
2022-11-22T16:53:39.029Z,65.67
2022-11-22T16:56:07.256Z,65.93
2022-11-22T16:58:35.061Z,66.60
2022-11-22T17:01:03.643Z,66.67
2022-11-22T17:03:33.712Z,67.42
2022-11-22T17:06:02.945Z,67.37
2022-11-22T17:08:30.789Z,67.69
2022-11-22T17:10:59.851Z,68.59
2022-11-22T17:13:28.051Z,68.55
2022-11-22T17:15:57.047Z,68.64
2022-11-22T17:18:25.283Z,68.17
2022-11-22T17:20:53.312Z,68.30
2022-11-22T17:23:27.882Z,68.14
2022-11-22T17:25:55.726Z,68.62
2022-11-22T17:28:23.509Z,68.89
2022-11-22T17:30:51.325Z,68.79
2022-11-22T17:33:19.174Z,69.04
2022-11-22T17:35:47.064Z,69.52
2022-11-22T17:38:14.905Z,69.56
2022-11-22T17:40:44.781Z,70.13
2022-11-22T17:43:12.817Z,70.49
2022-11-22T17:45:42.967Z,70.32
2022-11-22T17:48:10.978Z,70.29
2022-11-22T17:50:38.864Z,69.56
2022-11-22T17:53:07.594Z,70.03
2022-11-22T17:56:02.801Z,69.94
2022-11-22T17:58:24.686Z,69.74
2022-11-22T18:00:52.533Z,70.61
2022-11-22T18:03:20.275Z,71.47
2022-11-22T18:05:48.225Z,71.79
2022-11-22T18:08:15.998Z,72.54
2022-11-22T18:10:43.837Z,100.00
2022-11-22T18:13:21.140Z,100.00
2022-11-22T18:15:52.887Z,100.00
2022-11-22T18:18:48.624Z,100.00
2022-11-22T18:21:14.170Z,100.00
2022-11-22T18:23:45.143Z,100.00
2022-11-22T18:31:52.602Z,100.00
2022-11-22T18:34:21.152Z,100.00
2022-11-22T18:36:55.233Z,100.00
2022-11-22T18:39:23.443Z,100.00
2022-11-22T18:41:51.159Z,100.00
2022-11-22T18:44:19.332Z,100.00
2022-11-22T18:46:47.554Z,100.00
2022-11-22T18:49:16.636Z,100.00
2022-11-22T18:51:44.432Z,100.00
2022-11-22T18:54:12.470Z,100.00
2022-11-22T18:56:41.003Z,100.00
2022-11-22T18:59:12.298Z,100.00
2022-11-22T19:01:40.636Z,100.00
2022-11-22T19:04:08.829Z,100.00
2022-11-22T19:06:38.013Z,100.00
2022-11-22T19:09:06.014Z,100.00
2022-11-22T19:11:33.842Z,100.00
2022-11-22T19:14:01.683Z,100.00
2022-11-22T19:16:29.519Z,100.00
2022-11-22T19:18:57.600Z,100.00
2022-11-22T19:21:27.721Z,100.00
2022-11-22T19:23:57.385Z,100.00
2022-11-22T19:26:26.725Z,100.00
2022-11-22T19:28:56.183Z,100.00
2022-11-22T19:31:27.675Z,100.00
2022-11-22T19:33:55.686Z,100.00
2022-11-22T19:36:31.835Z,100.00
2022-11-22T19:39:03.219Z,100.00
2022-11-22T19:41:31.741Z,100.00
2022-11-22T19:43:59.652Z,100.00
2022-11-22T19:46:27.613Z,100.00
2022-11-22T19:48:56.997Z,100.00
2022-11-22T19:51:25.418Z,100.00
2022-11-22T19:53:54.277Z,100.00
2022-11-22T19:56:23.610Z,100.00
2022-11-22T19:58:52.321Z,100.00
2022-11-22T20:01:20.944Z,100.00
2022-11-22T20:03:52.765Z,100.00
2022-11-22T20:06:21.168Z,100.00
2022-11-22T20:08:48.968Z,100.00
2022-11-22T20:11:18.581Z,100.00
2022-11-22T20:13:49.940Z,100.00
2022-11-22T20:16:20.953Z,100.00
2022-11-22T20:18:49.392Z,100.00
2022-11-22T20:21:21.880Z,100.00
2022-11-22T20:23:50.511Z,100.00
2022-11-22T20:26:18.822Z,100.00
2022-11-22T20:28:48.750Z,100.00
2022-11-22T20:31:18.160Z,100.00
2022-11-22T20:33:47.368Z,100.00
2022-11-22T20:36:17.821Z,100.00
2022-11-22T20:38:46.697Z,100.00
2022-11-22T20:41:15.611Z,100.00
2022-11-22T20:43:43.394Z,100.00
2022-11-22T20:46:14.743Z,100.00
2022-11-22T20:48:44.147Z,100.00
2022-11-22T20:51:14.388Z,100.00
2022-11-22T20:53:42.569Z,100.00
2022-11-22T20:56:10.864Z,100.00
2022-11-22T20:58:39.097Z,100.00
2022-11-22T21:01:07.803Z,100.00
2022-11-22T21:03:37.712Z,100.00
2022-11-22T21:06:06.305Z,100.00
2022-11-22T21:08:34.661Z,100.00
2022-11-22T21:11:06.978Z,100.00
2022-11-22T21:13:35.397Z,100.00
2022-11-22T21:16:21.186Z,100.00
2022-11-22T21:18:52.477Z,100.00
2022-11-22T21:21:22.912Z,100.00
2022-11-22T21:23:51.930Z,100.00
2022-11-22T21:26:19.756Z,100.00
2022-11-22T21:28:47.555Z,100.00
2022-11-22T21:31:15.577Z,100.00
2022-11-22T21:33:43.585Z,100.00
2022-11-22T21:36:13.039Z,100.00
2022-11-22T21:38:40.963Z,100.00
2022-11-22T21:41:38.177Z,100.00
2022-11-22T21:43:58.839Z,100.00
2022-11-22T21:46:26.579Z,100.00
2022-11-22T21:48:55.717Z,100.00
2022-11-22T21:51:26.296Z,100.00
2022-11-22T21:53:57.812Z,100.00
2022-11-22T21:56:25.626Z,100.00
2022-11-22T21:58:53.471Z,100.00
2022-11-22T22:01:21.317Z,100.00
2022-11-22T22:03:49.121Z,100.00
2022-11-22T22:06:16.901Z,100.00
2022-11-22T22:08:46.044Z,100.00
2022-11-22T22:11:13.867Z,100.00
2022-11-22T22:13:41.650Z,100.00
2022-11-22T22:16:15.337Z,100.00
2022-11-22T22:18:43.566Z,100.00
2022-11-22T22:21:13.099Z,100.00
2022-11-22T22:23:41.640Z,100.00
2022-11-22T22:26:12.445Z,100.00
2022-11-22T22:28:40.785Z,100.00
2022-11-22T22:31:10.128Z,100.00
2022-11-22T22:33:39.619Z,100.00
2022-11-22T22:36:08.602Z,100.00
2022-11-22T22:38:36.453Z,100.00
2022-11-22T22:41:05.839Z,100.00
2022-11-22T22:43:36.803Z,100.00
2022-11-22T22:46:06.614Z,100.00
2022-11-22T22:48:35.140Z,100.00
2022-11-22T22:51:07.388Z,100.00
2022-11-22T22:53:35.207Z,100.00
2022-11-22T22:56:03.088Z,100.00
2022-11-22T22:58:30.973Z,100.00
2022-11-22T23:01:06.938Z,100.00
2022-11-22T23:04:05.391Z,100.00
2022-11-22T23:06:35.135Z,100.00
2022-11-22T23:09:05.613Z,100.00
2022-11-22T23:11:56.695Z,100.00
2022-11-22T23:14:25.789Z,100.00
2022-11-22T23:16:58.012Z,100.00
2022-11-22T23:19:26.964Z,100.00
2022-11-22T23:21:54.863Z,100.00
2022-11-22T23:24:22.649Z,100.00
2022-11-22T23:26:50.420Z,100.00
2022-11-22T23:29:18.222Z,100.00
2022-11-22T23:31:45.977Z,100.00
2022-11-22T23:34:15.097Z,100.00
2022-11-22T23:36:42.897Z,100.00
2022-11-22T23:39:10.745Z,100.00
2022-11-22T23:41:38.551Z,100.00
2022-11-22T23:44:06.584Z,100.00
2022-11-22T23:46:34.463Z,100.00
2022-11-22T23:49:02.883Z,100.00
2022-11-22T23:51:33.151Z,100.00
2022-11-22T23:54:01.981Z,100.00
2022-11-22T23:56:31.120Z,100.00
2022-11-22T23:58:59.482Z,100.00
